Geilenkirchen Airport ETNG

Flugplatz Daten

Name: Geilenkirchen Airport

Ident: ETNG

Lat: 50,96080017

Long: 6,04241991

Platzhöhe: 296 ft

IataCode: GKE

City:

Metar

2021/10/25 22:50
ETNG 252250Z 22006KT 9999 FEW016 BKN060 11/10 Q1018

Taf

2021/10/25 21:14
TAF ETNG 252000Z 2521/2612 22007KT 9999 SCT017 BKN025 PROB30
TEMPO 2600/2604 6000 -RA -SHRA BKN010 SCT018TCU PROB40 2602/2609 BKN010
BECMG 2608/2611 23012G22KT
Gewünschte Webcam nicht vorhanden? Dann fügen Sie eine hinzu. Sie wird dann so schnell wie möglich freigeschaltet
Url: Title: